sensor_id;sensor_type;location;lat;lon;timestamp;pressure;altitude;pressure_sealevel;temperature;humidity
62632;BME280;48703;51.248;-0.546;2023-04-21T00:00:48;101017;;;7.31;85.10
62632;BME280;48703;51.248;-0.546;2023-04-21T00:03:50;101016;;;7.31;85.06
62632;BME280;48703;51.248;-0.546;2023-04-21T00:06:52;101015;;;7.31;85.26
62632;BME280;48703;51.248;-0.546;2023-04-21T00:09:54;101015;;;7.29;85.82
62632;BME280;48703;51.248;-0.546;2023-04-21T00:12:56;101013;;;7.29;85.18
62632;BME280;48703;51.248;-0.546;2023-04-21T00:15:58;101014;;;7.31;85.22
62632;BME280;48703;51.248;-0.546;2023-04-21T00:19:00;101010;;;7.31;85.87
62632;BME280;48703;51.248;-0.546;2023-04-21T00:22:02;101007;;;7.33;86.01
62632;BME280;48703;51.248;-0.546;2023-04-21T00:25:04;100997;;;7.30;85.68
62632;BME280;48703;51.248;-0.546;2023-04-21T00:28:06;100995;;;7.31;85.86
62632;BME280;48703;51.248;-0.546;2023-04-21T00:31:08;100996;;;7.32;85.86
62632;BME280;48703;51.248;-0.546;2023-04-21T00:34:10;100997;;;7.32;85.83
62632;BME280;48703;51.248;-0.546;2023-04-21T00:37:12;100996;;;7.32;85.83
62632;BME280;48703;51.248;-0.546;2023-04-21T00:40:14;100993;;;7.33;85.56
62632;BME280;48703;51.248;-0.546;2023-04-21T00:43:16;100990;;;7.33;86.22
62632;BME280;48703;51.248;-0.546;2023-04-21T00:46:18;100987;;;7.35;85.75
62632;BME280;48703;51.248;-0.546;2023-04-21T00:49:21;100981;;;7.34;85.98
62632;BME280;48703;51.248;-0.546;2023-04-21T00:52:22;100980;;;7.36;85.72
62632;BME280;48703;51.248;-0.546;2023-04-21T00:55:24;100978;;;7.38;85.39
62632;BME280;48703;51.248;-0.546;2023-04-21T00:58:26;100976;;;7.40;86.18
62632;BME280;48703;51.248;-0.546;2023-04-21T01:01:28;100972;;;7.40;85.84
62632;BME280;48703;51.248;-0.546;2023-04-21T01:04:30;100974;;;7.41;85.86
62632;BME280;48703;51.248;-0.546;2023-04-21T01:07:32;100970;;;7.41;85.99
62632;BME280;48703;51.248;-0.546;2023-04-21T01:10:34;100965;;;7.42;85.97
62632;BME280;48703;51.248;-0.546;2023-04-21T01:13:36;100963;;;7.41;86.36
62632;BME280;48703;51.248;-0.546;2023-04-21T01:16:38;100960;;;7.41;85.90
62632;BME280;48703;51.248;-0.546;2023-04-21T01:19:40;100957;;;7.41;86.18
62632;BME280;48703;51.248;-0.546;2023-04-21T01:22:42;100957;;;7.39;86.61
62632;BME280;48703;51.248;-0.546;2023-04-21T01:25:44;100956;;;7.40;86.00
62632;BME280;48703;51.248;-0.546;2023-04-21T01:28:46;100954;;;7.41;87.42
62632;BME280;48703;51.248;-0.546;2023-04-21T01:31:48;100955;;;7.34;87.82
62632;BME280;48703;51.248;-0.546;2023-04-21T01:34:50;100945;;;7.26;87.58
62632;BME280;48703;51.248;-0.546;2023-04-21T01:37:52;100943;;;7.19;88.35
62632;BME280;48703;51.248;-0.546;2023-04-21T01:40:54;100942;;;7.14;88.59
62632;BME280;48703;51.248;-0.546;2023-04-21T01:43:56;100940;;;7.12;88.67
62632;BME280;48703;51.248;-0.546;2023-04-21T01:46:58;100932;;;7.11;89.56
62632;BME280;48703;51.248;-0.546;2023-04-21T01:50:00;100926;;;7.06;90.07
62632;BME280;48703;51.248;-0.546;2023-04-21T01:53:02;100923;;;7.08;90.38
62632;BME280;48703;51.248;-0.546;2023-04-21T01:56:04;100920;;;7.07;90.23
62632;BME280;48703;51.248;-0.546;2023-04-21T01:59:06;100913;;;7.07;90.13
62632;BME280;48703;51.248;-0.546;2023-04-21T02:02:08;100912;;;7.09;90.12
62632;BME280;48703;51.248;-0.546;2023-04-21T02:05:10;100911;;;7.10;90.39
62632;BME280;48703;51.248;-0.546;2023-04-21T02:08:12;100912;;;7.12;90.79
62632;BME280;48703;51.248;-0.546;2023-04-21T02:11:14;100909;;;7.13;90.84
62632;BME280;48703;51.248;-0.546;2023-04-21T02:14:16;100904;;;7.12;91.26
62632;BME280;48703;51.248;-0.546;2023-04-21T02:17:18;100904;;;7.11;91.22
62632;BME280;48703;51.248;-0.546;2023-04-21T02:20:20;100902;;;7.13;90.70
62632;BME280;48703;51.248;-0.546;2023-04-21T02:23:22;100897;;;7.13;90.90
62632;BME280;48703;51.248;-0.546;2023-04-21T02:26:24;100894;;;7.13;90.56
62632;BME280;48703;51.248;-0.546;2023-04-21T02:29:27;100890;;;7.14;90.82
62632;BME280;48703;51.248;-0.546;2023-04-21T02:32:28;100883;;;7.14;91.19
62632;BME280;48703;51.248;-0.546;2023-04-21T02:35:30;100874;;;7.14;90.48
62632;BME280;48703;51.248;-0.546;2023-04-21T02:38:32;100869;;;7.15;91.39
62632;BME280;48703;51.248;-0.546;2023-04-21T02:41:35;100864;;;7.13;91.20
62632;BME280;48703;51.248;-0.546;2023-04-21T02:44:36;100860;;;7.14;91.16
62632;BME280;48703;51.248;-0.546;2023-04-21T02:47:39;100856;;;7.13;91.55
62632;BME280;48703;51.248;-0.546;2023-04-21T02:50:41;100852;;;7.14;91.21
62632;BME280;48703;51.248;-0.546;2023-04-21T02:53:43;100848;;;7.13;91.98
62632;BME280;48703;51.248;-0.546;2023-04-21T02:56:45;100846;;;7.12;91.48
62632;BME280;48703;51.248;-0.546;2023-04-21T02:59:47;100846;;;7.13;91.06
62632;BME280;48703;51.248;-0.546;2023-04-21T03:02:49;100844;;;7.13;91.39
62632;BME280;48703;51.248;-0.546;2023-04-21T03:05:54;100842;;;7.13;91.19
62632;BME280;48703;51.248;-0.546;2023-04-21T03:08:53;100842;;;7.13;92.00
62632;BME280;48703;51.248;-0.546;2023-04-21T03:11:55;100839;;;7.12;91.52
62632;BME280;48703;51.248;-0.546;2023-04-21T03:14:57;100835;;;7.12;91.25
62632;BME280;48703;51.248;-0.546;2023-04-21T03:17:59;100839;;;7.10;91.31
62632;BME280;48703;51.248;-0.546;2023-04-21T03:21:01;100841;;;7.08;91.47
62632;BME280;48703;51.248;-0.546;2023-04-21T03:24:04;100836;;;7.08;91.34
62632;BME280;48703;51.248;-0.546;2023-04-21T03:27:05;100833;;;7.07;91.34
62632;BME280;48703;51.248;-0.546;2023-04-21T03:30:07;100829;;;7.07;91.54
62632;BME280;48703;51.248;-0.546;2023-04-21T03:33:09;100828;;;7.07;91.06
62632;BME280;48703;51.248;-0.546;2023-04-21T03:36:11;100827;;;7.06;91.46
62632;BME280;48703;51.248;-0.546;2023-04-21T03:39:13;100823;;;7.06;91.35
62632;BME280;48703;51.248;-0.546;2023-04-21T03:42:15;100820;;;7.05;91.21
62632;BME280;48703;51.248;-0.546;2023-04-21T03:45:17;100814;;;7.03;90.74
62632;BME280;48703;51.248;-0.546;2023-04-21T03:48:19;100808;;;7.03;91.47
62632;BME280;48703;51.248;-0.546;2023-04-21T03:51:21;100802;;;7.02;91.88
62632;BME280;48703;51.248;-0.546;2023-04-21T03:54:23;100800;;;7.02;91.59
62632;BME280;48703;51.248;-0.546;2023-04-21T03:57:25;100794;;;7.01;91.44
62632;BME280;48703;51.248;-0.546;2023-04-21T04:00:27;100789;;;7.01;91.30
62632;BME280;48703;51.248;-0.546;2023-04-21T04:03:29;100785;;;6.99;91.21
62632;BME280;48703;51.248;-0.546;2023-04-21T04:06:31;100785;;;6.99;90.92
62632;BME280;48703;51.248;-0.546;2023-04-21T04:09:33;100782;;;6.99;91.34
62632;BME280;48703;51.248;-0.546;2023-04-21T04:12:35;100780;;;6.97;91.61
62632;BME280;48703;51.248;-0.546;2023-04-21T04:15:37;100782;;;6.95;91.79
62632;BME280;48703;51.248;-0.546;2023-04-21T04:18:39;100781;;;6.95;91.74
62632;BME280;48703;51.248;-0.546;2023-04-21T04:21:41;100779;;;6.92;92.10
62632;BME280;48703;51.248;-0.546;2023-04-21T04:24:43;100776;;;6.90;91.60
62632;BME280;48703;51.248;-0.546;2023-04-21T04:27:45;100769;;;6.91;91.76
62632;BME280;48703;51.248;-0.546;2023-04-21T04:30:47;100760;;;6.89;91.36
62632;BME280;48703;51.248;-0.546;2023-04-21T04:33:49;100758;;;6.87;91.32
62632;BME280;48703;51.248;-0.546;2023-04-21T04:36:51;100757;;;6.86;91.41
62632;BME280;48703;51.248;-0.546;2023-04-21T04:39:53;100757;;;6.84;91.27
62632;BME280;48703;51.248;-0.546;2023-04-21T04:42:55;100755;;;6.84;91.42
62632;BME280;48703;51.248;-0.546;2023-04-21T04:45:57;100751;;;6.84;91.39
62632;BME280;48703;51.248;-0.546;2023-04-21T04:48:59;100744;;;6.83;91.14
62632;BME280;48703;51.248;-0.546;2023-04-21T04:52:01;100743;;;6.82;91.08
62632;BME280;48703;51.248;-0.546;2023-04-21T04:55:03;100741;;;6.80;91.05
62632;BME280;48703;51.248;-0.546;2023-04-21T04:58:05;100739;;;6.77;91.38
62632;BME280;48703;51.248;-0.546;2023-04-21T05:01:11;100734;;;6.75;91.15
62632;BME280;48703;51.248;-0.546;2023-04-21T05:04:09;100731;;;6.73;91.15
62632;BME280;48703;51.248;-0.546;2023-04-21T05:07:11;100730;;;6.73;91.32
62632;BME280;48703;51.248;-0.546;2023-04-21T05:10:13;100731;;;6.69;91.16
62632;BME280;48703;51.248;-0.546;2023-04-21T05:13:15;100729;;;6.68;91.09
62632;BME280;48703;51.248;-0.546;2023-04-21T05:16:17;100728;;;6.69;91.50
62632;BME280;48703;51.248;-0.546;2023-04-21T05:19:19;100724;;;6.71;91.21
62632;BME280;48703;51.248;-0.546;2023-04-21T05:22:21;100719;;;6.70;91.19
62632;BME280;48703;51.248;-0.546;2023-04-21T05:25:23;100718;;;6.70;91.33
62632;BME280;48703;51.248;-0.546;2023-04-21T05:28:25;100716;;;6.67;91.54
62632;BME280;48703;51.248;-0.546;2023-04-21T05:31:27;100715;;;6.67;91.37
62632;BME280;48703;51.248;-0.546;2023-04-21T05:34:29;100711;;;6.67;91.32
62632;BME280;48703;51.248;-0.546;2023-04-21T05:37:31;100709;;;6.67;90.85
62632;BME280;48703;51.248;-0.546;2023-04-21T05:40:34;100702;;;6.62;90.46
62632;BME280;48703;51.248;-0.546;2023-04-21T05:43:36;100698;;;6.64;90.91
62632;BME280;48703;51.248;-0.546;2023-04-21T05:46:38;100699;;;6.65;90.93
62632;BME280;48703;51.248;-0.546;2023-04-21T05:49:40;100695;;;6.64;91.00
62632;BME280;48703;51.248;-0.546;2023-04-21T05:52:42;100694;;;6.62;91.42
62632;BME280;48703;51.248;-0.546;2023-04-21T05:55:44;100690;;;6.63;91.22
62632;BME280;48703;51.248;-0.546;2023-04-21T05:58:46;100685;;;6.65;91.39
62632;BME280;48703;51.248;-0.546;2023-04-21T06:01:48;100681;;;6.65;91.11
62632;BME280;48703;51.248;-0.546;2023-04-21T06:04:50;100684;;;6.66;91.84
62632;BME280;48703;51.248;-0.546;2023-04-21T06:07:52;100683;;;6.68;91.21
62632;BME280;48703;51.248;-0.546;2023-04-21T06:10:54;100684;;;6.70;91.13
62632;BME280;48703;51.248;-0.546;2023-04-21T06:13:56;100681;;;6.73;91.01
62632;BME280;48703;51.248;-0.546;2023-04-21T06:16:58;100674;;;6.75;90.98
62632;BME280;48703;51.248;-0.546;2023-04-21T06:20:00;100673;;;6.77;91.42
62632;BME280;48703;51.248;-0.546;2023-04-21T06:23:02;100671;;;6.80;91.82
62632;BME280;48703;51.248;-0.546;2023-04-21T06:26:04;100669;;;6.82;91.70
62632;BME280;48703;51.248;-0.546;2023-04-21T06:29:06;100662;;;6.85;91.79
62632;BME280;48703;51.248;-0.546;2023-04-21T06:32:08;100660;;;6.87;91.41
62632;BME280;48703;51.248;-0.546;2023-04-21T06:35:10;100657;;;6.88;91.38
62632;BME280;48703;51.248;-0.546;2023-04-21T06:38:12;100654;;;6.89;91.24
62632;BME280;48703;51.248;-0.546;2023-04-21T06:41:14;100649;;;6.90;90.92
62632;BME280;48703;51.248;-0.546;2023-04-21T06:44:16;100646;;;6.92;91.04
62632;BME280;48703;51.248;-0.546;2023-04-21T06:47:18;100644;;;6.94;91.62
62632;BME280;48703;51.248;-0.546;2023-04-21T06:50:20;100639;;;6.95;90.98
62632;BME280;48703;51.248;-0.546;2023-04-21T06:53:22;100638;;;6.96;90.80
62632;BME280;48703;51.248;-0.546;2023-04-21T06:56:25;100638;;;6.97;91.05
62632;BME280;48703;51.248;-0.546;2023-04-21T06:59:26;100637;;;6.99;91.81
62632;BME280;48703;51.248;-0.546;2023-04-21T07:02:28;100633;;;7.01;91.69
62632;BME280;48703;51.248;-0.546;2023-04-21T07:05:30;100632;;;7.02;92.01
62632;BME280;48703;51.248;-0.546;2023-04-21T07:08:32;100630;;;7.03;91.63
62632;BME280;48703;51.248;-0.546;2023-04-21T07:11:34;100626;;;7.05;91.73
62632;BME280;48703;51.248;-0.546;2023-04-21T07:14:36;100620;;;7.07;91.71
62632;BME280;48703;51.248;-0.546;2023-04-21T07:17:38;100615;;;7.09;92.03
62632;BME280;48703;51.248;-0.546;2023-04-21T07:20:40;100610;;;7.12;91.51
62632;BME280;48703;51.248;-0.546;2023-04-21T07:23:42;100606;;;7.16;92.00
62632;BME280;48703;51.248;-0.546;2023-04-21T07:26:44;100602;;;7.16;92.53
62632;BME280;48703;51.248;-0.546;2023-04-21T07:29:46;100596;;;7.18;92.12
62632;BME280;48703;51.248;-0.546;2023-04-21T07:32:48;100593;;;7.21;91.70
62632;BME280;48703;51.248;-0.546;2023-04-21T07:35:50;100588;;;7.25;92.12
62632;BME280;48703;51.248;-0.546;2023-04-21T07:38:52;100586;;;7.29;92.09
62632;BME280;48703;51.248;-0.546;2023-04-21T07:41:54;100585;;;7.33;91.66
62632;BME280;48703;51.248;-0.546;2023-04-21T07:44:56;100581;;;7.36;91.64
62632;BME280;48703;51.248;-0.546;2023-04-21T07:47:58;100579;;;7.39;91.81
62632;BME280;48703;51.248;-0.546;2023-04-21T07:51:00;100575;;;7.41;91.20
62632;BME280;48703;51.248;-0.546;2023-04-21T07:54:02;100576;;;7.46;91.78
62632;BME280;48703;51.248;-0.546;2023-04-21T07:57:04;100573;;;7.48;91.41
62632;BME280;48703;51.248;-0.546;2023-04-21T08:00:07;100571;;;7.52;91.06
62632;BME280;48703;51.248;-0.546;2023-04-21T08:03:08;100569;;;7.57;90.82
62632;BME280;48703;51.248;-0.546;2023-04-21T08:06:10;100572;;;7.62;90.91
62632;BME280;48703;51.248;-0.546;2023-04-21T08:09:12;100571;;;7.65;90.27
62632;BME280;48703;51.248;-0.546;2023-04-21T08:12:14;100571;;;7.65;90.01
62632;BME280;48703;51.248;-0.546;2023-04-21T08:15:16;100570;;;7.65;88.39
62632;BME280;48703;51.248;-0.546;2023-04-21T08:18:19;100569;;;7.67;88.32
62632;BME280;48703;51.248;-0.546;2023-04-21T08:21:20;100569;;;7.66;87.85
62632;BME280;48703;51.248;-0.546;2023-04-21T08:24:23;100567;;;7.66;88.62
62632;BME280;48703;51.248;-0.546;2023-04-21T08:27:25;100566;;;7.66;87.88
62632;BME280;48703;51.248;-0.546;2023-04-21T08:30:27;100567;;;7.66;88.69
62632;BME280;48703;51.248;-0.546;2023-04-21T08:33:29;100567;;;7.65;88.82
62632;BME280;48703;51.248;-0.546;2023-04-21T08:36:31;100562;;;7.65;88.31
62632;BME280;48703;51.248;-0.546;2023-04-21T08:39:33;100559;;;7.66;89.00
62632;BME280;48703;51.248;-0.546;2023-04-21T08:42:35;100558;;;7.67;88.74
62632;BME280;48703;51.248;-0.546;2023-04-21T08:45:37;100553;;;7.63;86.43
62632;BME280;48703;51.248;-0.546;2023-04-21T08:48:39;100554;;;7.63;87.48
62632;BME280;48703;51.248;-0.546;2023-04-21T08:51:41;100552;;;7.63;86.75
62632;BME280;48703;51.248;-0.546;2023-04-21T08:54:43;100554;;;7.65;87.04
62632;BME280;48703;51.248;-0.546;2023-04-21T08:57:45;100556;;;7.63;86.71
62632;BME280;48703;51.248;-0.546;2023-04-21T09:00:47;100558;;;7.62;86.92
62632;BME280;48703;51.248;-0.546;2023-04-21T09:03:49;100558;;;7.62;86.98
62632;BME280;48703;51.248;-0.546;2023-04-21T09:06:51;100558;;;7.60;86.52
62632;BME280;48703;51.248;-0.546;2023-04-21T09:09:53;100557;;;7.59;86.76
62632;BME280;48703;51.248;-0.546;2023-04-21T09:12:55;100559;;;7.58;86.39
62632;BME280;48703;51.248;-0.546;2023-04-21T09:15:57;100561;;;7.61;86.60
62632;BME280;48703;51.248;-0.546;2023-04-21T09:18:59;100563;;;7.63;87.39
62632;BME280;48703;51.248;-0.546;2023-04-21T09:22:01;100564;;;7.63;87.58
62632;BME280;48703;51.248;-0.546;2023-04-21T09:25:03;100566;;;7.60;87.45
62632;BME280;48703;51.248;-0.546;2023-04-21T09:28:06;100566;;;7.59;87.62
62632;BME280;48703;51.248;-0.546;2023-04-21T09:31:11;100566;;;7.60;87.45
62632;BME280;48703;51.248;-0.546;2023-04-21T09:34:16;100564;;;7.58;88.20
62632;BME280;48703;51.248;-0.546;2023-04-21T09:37:11;100564;;;7.56;88.19
62632;BME280;48703;51.248;-0.546;2023-04-21T09:40:13;100562;;;7.56;88.64
62632;BME280;48703;51.248;-0.546;2023-04-21T09:43:15;100562;;;7.52;86.75
62632;BME280;48703;51.248;-0.546;2023-04-21T09:46:17;100563;;;7.52;87.17
62632;BME280;48703;51.248;-0.546;2023-04-21T09:49:21;100562;;;7.50;87.43
62632;BME280;48703;51.248;-0.546;2023-04-21T09:52:21;100563;;;7.51;88.17
62632;BME280;48703;51.248;-0.546;2023-04-21T09:55:25;100564;;;7.51;89.31
62632;BME280;48703;51.248;-0.546;2023-04-21T09:58:27;100566;;;7.50;89.56
62632;BME280;48703;51.248;-0.546;2023-04-21T10:01:28;100567;;;7.48;88.71
62632;BME280;48703;51.248;-0.546;2023-04-21T10:04:29;100566;;;7.46;88.15
62632;BME280;48703;51.248;-0.546;2023-04-21T10:07:31;100565;;;7.47;88.57
62632;BME280;48703;51.248;-0.546;2023-04-21T10:10:33;100567;;;7.48;89.06
62632;BME280;48703;51.248;-0.546;2023-04-21T10:13:35;100567;;;7.48;89.51
62632;BME280;48703;51.248;-0.546;2023-04-21T10:16:37;100565;;;7.47;88.29
62632;BME280;48703;51.248;-0.546;2023-04-21T10:19:46;100564;;;7.48;89.09
62632;BME280;48703;51.248;-0.546;2023-04-21T10:22:41;100563;;;7.50;89.45
62632;BME280;48703;51.248;-0.546;2023-04-21T10:25:46;100559;;;7.51;89.05
62632;BME280;48703;51.248;-0.546;2023-04-21T10:28:47;100557;;;7.52;89.82
62632;BME280;48703;51.248;-0.546;2023-04-21T10:31:49;100556;;;7.54;89.98
62632;BME280;48703;51.248;-0.546;2023-04-21T10:34:49;100553;;;7.57;90.33
62632;BME280;48703;51.248;-0.546;2023-04-21T10:37:51;100549;;;7.58;90.15
62632;BME280;48703;51.248;-0.546;2023-04-21T10:40:53;100548;;;7.53;88.34
62632;BME280;48703;51.248;-0.546;2023-04-21T10:43:56;100550;;;7.57;89.55
62632;BME280;48703;51.248;-0.546;2023-04-21T10:46:58;100551;;;7.58;90.34
62632;BME280;48703;51.248;-0.546;2023-04-21T10:50:00;100548;;;7.63;90.05
62632;BME280;48703;51.248;-0.546;2023-04-21T10:53:07;100546;;;7.68;90.14
62632;BME280;48703;51.248;-0.546;2023-04-21T10:56:03;100544;;;7.72;89.11
62632;BME280;48703;51.248;-0.546;2023-04-21T10:59:06;100541;;;7.79;89.43
62632;BME280;48703;51.248;-0.546;2023-04-21T11:02:09;100539;;;7.86;88.95
62632;BME280;48703;51.248;-0.546;2023-04-21T11:05:10;100538;;;7.91;88.41
62632;BME280;48703;51.248;-0.546;2023-04-21T11:08:12;100540;;;7.96;88.53
62632;BME280;48703;51.248;-0.546;2023-04-21T11:11:14;100537;;;7.98;87.43
62632;BME280;48703;51.248;-0.546;2023-04-21T11:14:16;100533;;;8.06;87.96
62632;BME280;48703;51.248;-0.546;2023-04-21T11:17:18;100525;;;8.13;87.96
62632;BME280;48703;51.248;-0.546;2023-04-21T11:20:20;100521;;;8.24;87.93
62632;BME280;48703;51.248;-0.546;2023-04-21T11:23:22;100520;;;8.31;87.93
62632;BME280;48703;51.248;-0.546;2023-04-21T11:26:31;100521;;;8.37;86.50
62632;BME280;48703;51.248;-0.546;2023-04-21T11:29:26;100522;;;8.38;85.89
62632;BME280;48703;51.248;-0.546;2023-04-21T11:32:28;100519;;;8.38;86.16
62632;BME280;48703;51.248;-0.546;2023-04-21T11:35:30;100516;;;8.40;86.21
62632;BME280;48703;51.248;-0.546;2023-04-21T11:38:35;100511;;;8.44;86.54
62632;BME280;48703;51.248;-0.546;2023-04-21T11:41:34;100510;;;8.50;86.91
62632;BME280;48703;51.248;-0.546;2023-04-21T11:44:36;100510;;;8.57;87.94
62632;BME280;48703;51.248;-0.546;2023-04-21T11:47:38;100506;;;8.59;87.03
62632;BME280;48703;51.248;-0.546;2023-04-21T11:50:40;100505;;;8.65;86.18
62632;BME280;48703;51.248;-0.546;2023-04-21T11:53:42;100507;;;8.69;85.93
62632;BME280;48703;51.248;-0.546;2023-04-21T11:56:45;100512;;;8.69;85.91
62632;BME280;48703;51.248;-0.546;2023-04-21T11:59:46;100512;;;8.67;83.41
62632;BME280;48703;51.248;-0.546;2023-04-21T12:02:52;100512;;;8.70;84.21
62632;BME280;48703;51.248;-0.546;2023-04-21T12:05:54;100510;;;8.73;84.82
62632;BME280;48703;51.248;-0.546;2023-04-21T12:08:54;100510;;;8.73;84.26
62632;BME280;48703;51.248;-0.546;2023-04-21T12:11:54;100510;;;8.74;84.31
62632;BME280;48703;51.248;-0.546;2023-04-21T12:14:56;100508;;;8.75;84.47
62632;BME280;48703;51.248;-0.546;2023-04-21T12:17:58;100507;;;8.75;85.10
62632;BME280;48703;51.248;-0.546;2023-04-21T12:21:00;100506;;;8.78;84.05
62632;BME280;48703;51.248;-0.546;2023-04-21T12:24:02;100507;;;8.81;84.95
62632;BME280;48703;51.248;-0.546;2023-04-21T12:27:04;100509;;;8.85;84.53
62632;BME280;48703;51.248;-0.546;2023-04-21T12:30:07;100514;;;8.89;84.10
62632;BME280;48703;51.248;-0.546;2023-04-21T12:33:08;100514;;;8.90;83.04
62632;BME280;48703;51.248;-0.546;2023-04-21T12:36:10;100513;;;8.91;83.72
62632;BME280;48703;51.248;-0.546;2023-04-21T12:39:12;100511;;;8.94;83.65
62632;BME280;48703;51.248;-0.546;2023-04-21T12:42:14;100514;;;8.92;83.06
62632;BME280;48703;51.248;-0.546;2023-04-21T12:45:16;100513;;;8.89;82.46
62632;BME280;48703;51.248;-0.546;2023-04-21T12:48:18;100510;;;8.88;82.88
62632;BME280;48703;51.248;-0.546;2023-04-21T12:51:20;100514;;;8.86;82.08
62632;BME280;48703;51.248;-0.546;2023-04-21T12:54:22;100514;;;8.86;81.24
62632;BME280;48703;51.248;-0.546;2023-04-21T12:57:24;100513;;;8.87;81.23
62632;BME280;48703;51.248;-0.546;2023-04-21T13:00:26;100512;;;8.86;80.80
62632;BME280;48703;51.248;-0.546;2023-04-21T13:03:28;100510;;;8.88;82.30
62632;BME280;48703;51.248;-0.546;2023-04-21T13:06:30;100509;;;8.92;82.07
62632;BME280;48703;51.248;-0.546;2023-04-21T13:09:32;100506;;;8.91;80.55
62632;BME280;48703;51.248;-0.546;2023-04-21T13:12:34;100503;;;8.90;81.43
62632;BME280;48703;51.248;-0.546;2023-04-21T13:15:36;100500;;;8.95;81.76
62632;BME280;48703;51.248;-0.546;2023-04-21T13:18:38;100501;;;9.01;82.83
62632;BME280;48703;51.248;-0.546;2023-04-21T13:21:40;100502;;;9.10;82.64
62632;BME280;48703;51.248;-0.546;2023-04-21T13:24:42;100499;;;9.15;82.60
62632;BME280;48703;51.248;-0.546;2023-04-21T13:27:44;100497;;;9.24;81.74
62632;BME280;48703;51.248;-0.546;2023-04-21T13:30:47;100496;;;9.38;82.04
62632;BME280;48703;51.248;-0.546;2023-04-21T13:33:49;100494;;;9.51;80.66
62632;BME280;48703;51.248;-0.546;2023-04-21T13:36:51;100494;;;9.64;80.31
62632;BME280;48703;51.248;-0.546;2023-04-21T13:39:53;100492;;;9.75;81.99
62632;BME280;48703;51.248;-0.546;2023-04-21T13:42:55;100490;;;9.80;79.00
62632;BME280;48703;51.248;-0.546;2023-04-21T13:45:57;100490;;;9.79;79.41
62632;BME280;48703;51.248;-0.546;2023-04-21T13:48:59;100490;;;9.81;80.05
62632;BME280;48703;51.248;-0.546;2023-04-21T13:52:01;100488;;;9.82;79.38
62632;BME280;48703;51.248;-0.546;2023-04-21T13:55:03;100484;;;9.80;79.47
62632;BME280;48703;51.248;-0.546;2023-04-21T13:58:05;100477;;;9.84;79.21
62632;BME280;48703;51.248;-0.546;2023-04-21T14:01:07;100474;;;9.94;79.54
62632;BME280;48703;51.248;-0.546;2023-04-21T14:04:09;100469;;;9.98;80.00
62632;BME280;48703;51.248;-0.546;2023-04-21T14:07:11;100465;;;10.04;77.11
62632;BME280;48703;51.248;-0.546;2023-04-21T14:10:13;100466;;;10.03;76.37
62632;BME280;48703;51.248;-0.546;2023-04-21T14:13:15;100466;;;9.95;75.28
62632;BME280;48703;51.248;-0.546;2023-04-21T14:16:17;100465;;;9.93;76.03
62632;BME280;48703;51.248;-0.546;2023-04-21T14:19:19;100463;;;9.89;76.34
62632;BME280;48703;51.248;-0.546;2023-04-21T14:22:21;100461;;;9.92;77.03
62632;BME280;48703;51.248;-0.546;2023-04-21T14:25:23;100456;;;9.94;76.19
62632;BME280;48703;51.248;-0.546;2023-04-21T14:28:25;100451;;;9.98;76.30
62632;BME280;48703;51.248;-0.546;2023-04-21T14:31:27;100449;;;10.06;77.67
62632;BME280;48703;51.248;-0.546;2023-04-21T14:34:29;100450;;;10.12;74.78
62632;BME280;48703;51.248;-0.546;2023-04-21T14:37:31;100447;;;10.12;73.41
62632;BME280;48703;51.248;-0.546;2023-04-21T14:40:33;100444;;;10.19;75.56
62632;BME280;48703;51.248;-0.546;2023-04-21T14:43:35;100443;;;10.23;74.02
62632;BME280;48703;51.248;-0.546;2023-04-21T14:46:37;100442;;;10.18;73.71
62632;BME280;48703;51.248;-0.546;2023-04-21T14:49:39;100438;;;10.17;74.05
62632;BME280;48703;51.248;-0.546;2023-04-21T14:52:41;100436;;;10.18;75.51
62632;BME280;48703;51.248;-0.546;2023-04-21T14:55:43;100436;;;10.20;76.44
62632;BME280;48703;51.248;-0.546;2023-04-21T14:58:45;100431;;;10.22;76.48
62632;BME280;48703;51.248;-0.546;2023-04-21T15:01:47;100426;;;10.21;76.38
62632;BME280;48703;51.248;-0.546;2023-04-21T15:04:49;100426;;;10.26;75.58
62632;BME280;48703;51.248;-0.546;2023-04-21T15:07:51;100422;;;10.33;75.64
62632;BME280;48703;51.248;-0.546;2023-04-21T15:10:53;100418;;;10.36;75.22
62632;BME280;48703;51.248;-0.546;2023-04-21T15:13:55;100414;;;10.39;75.56
62632;BME280;48703;51.248;-0.546;2023-04-21T15:16:57;100414;;;10.59;73.62
62632;BME280;48703;51.248;-0.546;2023-04-21T15:19:59;100413;;;10.77;74.14
62632;BME280;48703;51.248;-0.546;2023-04-21T15:23:01;100411;;;10.94;72.28
62632;BME280;48703;51.248;-0.546;2023-04-21T15:26:03;100404;;;11.04;72.76
62632;BME280;48703;51.248;-0.546;2023-04-21T15:29:05;100399;;;11.21;73.21
62632;BME280;48703;51.248;-0.546;2023-04-21T15:32:08;100399;;;11.31;73.94
62632;BME280;48703;51.248;-0.546;2023-04-21T15:35:09;100397;;;11.49;71.27
62632;BME280;48703;51.248;-0.546;2023-04-21T15:38:11;100400;;;11.53;69.39
62632;BME280;48703;51.248;-0.546;2023-04-21T15:41:13;100395;;;11.48;68.03
62632;BME280;48703;51.248;-0.546;2023-04-21T15:44:15;100393;;;11.50;68.96
62632;BME280;48703;51.248;-0.546;2023-04-21T15:47:17;100392;;;11.43;68.95
62632;BME280;48703;51.248;-0.546;2023-04-21T15:50:19;100385;;;11.32;69.94
62632;BME280;48703;51.248;-0.546;2023-04-21T15:53:21;100382;;;11.26;69.17
62632;BME280;48703;51.248;-0.546;2023-04-21T15:56:23;100381;;;11.19;70.50
62632;BME280;48703;51.248;-0.546;2023-04-21T15:59:25;100378;;;11.26;71.14
62632;BME280;48703;51.248;-0.546;2023-04-21T16:02:28;100370;;;11.45;70.78
62632;BME280;48703;51.248;-0.546;2023-04-21T16:05:30;100363;;;11.66;70.73
62632;BME280;48703;51.248;-0.546;2023-04-21T16:08:31;100363;;;11.92;69.10
62632;BME280;48703;51.248;-0.546;2023-04-21T16:11:33;100365;;;12.07;69.15
62632;BME280;48703;51.248;-0.546;2023-04-21T16:14:35;100367;;;12.06;70.41
62632;BME280;48703;51.248;-0.546;2023-04-21T16:17:38;100363;;;12.04;71.08
62632;BME280;48703;51.248;-0.546;2023-04-21T16:20:40;100361;;;12.10;70.54
62632;BME280;48703;51.248;-0.546;2023-04-21T16:23:42;100361;;;12.05;69.80
62632;BME280;48703;51.248;-0.546;2023-04-21T16:26:44;100360;;;12.01;69.64